Forside
METAR-TAF:

METAR-TAF

Lufthavne :

Charlotte, Michigan, USA

Breddekreds: 42-34-28N, længdekreds: 084-48-41W, højde: 271 m

Aktuelle vejr

Denne rapport blev lavet for 23 minutter siden, kl. 17:35 UTC
Vind 13 kt fra sydsydvest
Temperatur 8°C
Fugtighed 49%
Tryk 1013 hPa
Sigt: 16.1 km
skyfri

METAR: KFPK 231735Z AUTO 20013KT 10SM CLR 08/M02 A2991 RMK AO2 T00761020

Tid: 12:58 (17:58 UTC)


TAF: fraværende

Vejrobservationer og prognoser fra mere end 4000 lufthavne (METAR og TAF).

De gule og røde prikker repræsenterer de meteorologiske stationer.

Flyt musen over at se navnet på stationen.

Så klik over at se vejr observationer og prognoser.

At skifte det kort: Klik på de grønne knapper med et sort kors for at zoome ind; på den grønne knap med en bindestreg for at zoome ud; eller på de grønne pile for tilstødende kort.


METAR-TAF: